createdAt,value
2023-04-18T00:00:56.429Z,82.43
2023-04-18T00:03:59.991Z,83.07
2023-04-18T00:07:03.560Z,84.43
2023-04-18T00:10:08.882Z,85.25
2023-04-18T00:13:12.241Z,86.42
2023-04-18T00:16:16.142Z,87.09
2023-04-18T00:19:20.227Z,87.56
2023-04-18T00:22:23.648Z,87.94
2023-04-18T00:25:26.838Z,88.58
2023-04-18T00:28:30.089Z,89.03
2023-04-18T00:31:33.059Z,88.95
2023-04-18T00:34:36.382Z,89.62
2023-04-18T00:37:39.300Z,90.52
2023-04-18T00:40:42.585Z,91.84
2023-04-18T00:43:45.820Z,92.16
2023-04-18T00:46:49.125Z,92.66
2023-04-18T00:49:52.076Z,92.02
2023-04-18T00:52:56.944Z,91.49
2023-04-18T00:56:00.067Z,93.74
2023-04-18T00:59:04.253Z,96.03
2023-04-18T01:02:07.317Z,97.10
2023-04-18T01:05:11.053Z,97.91
2023-04-18T01:08:14.564Z,98.38
2023-04-18T01:11:17.960Z,98.46
2023-04-18T01:14:24.128Z,99.39
2023-04-18T01:17:28.643Z,100.00
2023-04-18T01:20:31.662Z,100.00
2023-04-18T01:23:34.979Z,100.00
2023-04-18T01:26:38.430Z,100.00
2023-04-18T01:29:41.638Z,100.00
2023-04-18T01:32:45.278Z,100.00
2023-04-18T01:35:48.554Z,100.00
2023-04-18T01:38:51.519Z,100.00
2023-04-18T01:41:55.889Z,100.00
2023-04-18T01:44:58.924Z,100.00
2023-04-18T01:48:03.444Z,99.35
2023-04-18T01:51:06.702Z,99.31
2023-04-18T01:54:10.103Z,100.00
2023-04-18T01:57:13.063Z,100.00
2023-04-18T02:00:16.873Z,99.92
2023-04-18T02:03:19.857Z,100.00
2023-04-18T02:06:23.154Z,100.00
2023-04-18T02:09:26.070Z,100.00
2023-04-18T02:12:29.245Z,100.00
2023-04-18T02:15:32.439Z,100.00
2023-04-18T02:18:35.707Z,100.00
2023-04-18T02:21:38.697Z,100.00
2023-04-18T02:24:41.952Z,100.00
2023-04-18T02:27:45.183Z,100.00
2023-04-18T02:30:48.366Z,100.00
2023-04-18T02:33:51.987Z,100.00
2023-04-18T02:36:57.761Z,100.00
2023-04-18T02:40:00.674Z,100.00
2023-04-18T02:43:05.376Z,100.00
2023-04-18T02:46:08.663Z,100.00
2023-04-18T02:49:12.248Z,100.00
2023-04-18T02:52:15.502Z,100.00
2023-04-18T02:55:19.175Z,100.00
2023-04-18T02:58:22.860Z,100.00
2023-04-18T03:01:28.238Z,100.00
2023-04-18T03:04:31.093Z,100.00
2023-04-18T03:07:35.065Z,100.00
2023-04-18T03:10:40.240Z,100.00
2023-04-18T03:13:44.020Z,100.00
2023-04-18T03:16:48.988Z,100.00
2023-04-18T03:19:54.202Z,100.00
2023-04-18T03:22:57.118Z,100.00
2023-04-18T03:26:01.975Z,100.00
2023-04-18T03:29:06.705Z,100.00
2023-04-18T03:32:10.190Z,100.00
2023-04-18T03:35:13.181Z,100.00
2023-04-18T03:38:17.274Z,100.00
2023-04-18T03:41:20.395Z,100.00
2023-04-18T03:44:23.757Z,100.00
2023-04-18T03:47:26.883Z,100.00
2023-04-18T03:50:30.820Z,100.00
2023-04-18T03:53:34.396Z,100.00
2023-04-18T03:56:38.160Z,100.00
2023-04-18T03:59:41.791Z,100.00
2023-04-18T04:02:45.550Z,100.00
2023-04-18T04:05:52.500Z,100.00
2023-04-18T04:08:56.198Z,100.00
2023-04-18T04:11:59.867Z,100.00
2023-04-18T04:15:04.676Z,100.00
2023-04-18T04:18:10.406Z,100.00
2023-04-18T04:21:14.063Z,100.00
2023-04-18T04:24:17.896Z,100.00
2023-04-18T04:27:22.796Z,100.00
2023-04-18T04:30:26.394Z,100.00
2023-04-18T04:33:29.461Z,100.00
2023-04-18T04:36:34.993Z,100.00
2023-04-18T04:39:38.308Z,100.00
2023-04-18T04:42:43.819Z,100.00
2023-04-18T04:45:52.657Z,100.00
2023-04-18T04:48:57.745Z,100.00
2023-04-18T04:52:02.955Z,100.00
2023-04-18T04:55:07.214Z,100.00
2023-04-18T04:58:10.426Z,100.00
2023-04-18T05:01:14.158Z,100.00
2023-04-18T05:04:17.342Z,100.00
2023-04-18T05:07:20.870Z,100.00
2023-04-18T05:10:24.280Z,100.00
2023-04-18T05:13:27.600Z,100.00
2023-04-18T05:16:30.533Z,100.00
2023-04-18T05:19:33.817Z,100.00
2023-04-18T05:22:37.957Z,100.00
2023-04-18T05:25:41.247Z,100.00
2023-04-18T05:28:44.497Z,100.00
2023-04-18T05:31:48.026Z,100.00
2023-04-18T05:34:51.397Z,100.00
2023-04-18T05:37:54.569Z,100.00
2023-04-18T05:41:00.402Z,100.00
2023-04-18T05:44:05.691Z,100.00
2023-04-18T05:47:08.919Z,100.00
2023-04-18T05:50:12.076Z,100.00
2023-04-18T05:53:15.334Z,100.00
2023-04-18T05:56:18.571Z,100.00
2023-04-18T05:59:21.654Z,100.00
2023-04-18T06:02:24.944Z,100.00
2023-04-18T06:05:28.752Z,100.00
2023-04-18T06:08:31.689Z,100.00
2023-04-18T06:11:36.465Z,100.00
2023-04-18T06:14:39.386Z,100.00
2023-04-18T06:17:44.807Z,100.00
2023-04-18T06:20:48.917Z,100.00
2023-04-18T06:23:51.960Z,100.00
2023-04-18T06:26:55.425Z,100.00
2023-04-18T06:29:58.764Z,100.00
2023-04-18T06:33:01.803Z,100.00
2023-04-18T06:36:05.796Z,100.00
2023-04-18T06:39:08.796Z,100.00
2023-04-18T06:42:11.952Z,100.00
2023-04-18T06:45:20.189Z,100.00
2023-04-18T06:48:23.426Z,100.00
2023-04-18T06:51:27.464Z,100.00
2023-04-18T06:54:30.709Z,100.00
2023-04-18T06:57:33.548Z,100.00
2023-04-18T07:00:36.871Z,100.00
2023-04-18T07:03:39.870Z,100.00
2023-04-18T07:06:43.512Z,100.00
2023-04-18T07:09:46.632Z,100.00
2023-04-18T07:12:49.785Z,100.00
2023-04-18T07:15:52.669Z,98.56
2023-04-18T07:18:56.017Z,97.82
2023-04-18T07:21:58.997Z,95.42
2023-04-18T07:25:02.160Z,95.23
2023-04-18T07:28:05.155Z,98.01
2023-04-18T07:31:11.819Z,92.14
2023-04-18T07:34:15.233Z,90.12
2023-04-18T07:37:19.194Z,87.03
2023-04-18T07:40:22.472Z,90.00
2023-04-18T07:43:26.313Z,81.72
2023-04-18T07:46:32.497Z,84.77
2023-04-18T07:49:35.883Z,76.98
2023-04-18T07:52:39.534Z,76.99
2023-04-18T07:55:43.568Z,78.01
2023-04-18T07:58:47.606Z,76.46
2023-04-18T08:01:50.819Z,74.68
2023-04-18T08:04:56.224Z,72.07
2023-04-18T08:07:59.424Z,72.87
2023-04-18T08:11:02.861Z,74.37
2023-04-18T08:14:05.935Z,74.98
2023-04-18T08:17:09.130Z,76.75
2023-04-18T08:20:13.170Z,75.42
2023-04-18T08:23:16.335Z,74.37
2023-04-18T08:26:19.875Z,72.15
2023-04-18T08:29:23.038Z,74.95
2023-04-18T08:32:26.245Z,70.01
2023-04-18T08:35:29.531Z,70.70
2023-04-18T08:38:33.897Z,67.66
2023-04-18T08:41:39.730Z,64.29
2023-04-18T08:44:43.158Z,64.55
2023-04-18T08:47:47.179Z,62.55
2023-04-18T08:50:49.952Z,64.06
2023-04-18T08:53:53.465Z,65.80
2023-04-18T08:57:26.944Z,64.56
2023-04-18T09:00:30.619Z,65.25
2023-04-18T09:03:42.677Z,61.80
2023-04-18T09:06:53.134Z,58.72
2023-04-18T09:09:57.820Z,58.50
2023-04-18T09:13:03.772Z,58.10
2023-04-18T09:16:08.095Z,58.36
2023-04-18T09:19:18.999Z,59.69
2023-04-18T09:22:22.330Z,60.16
2023-04-18T09:25:30.615Z,58.48
2023-04-18T09:28:35.158Z,58.98
2023-04-18T09:31:52.969Z,57.55
2023-04-18T09:35:04.304Z,58.92
2023-04-18T09:38:08.119Z,56.05
2023-04-18T09:41:12.398Z,55.30
2023-04-18T09:44:17.240Z,54.44
2023-04-18T09:47:20.660Z,53.96
2023-04-18T09:50:23.998Z,54.69
2023-04-18T09:53:27.093Z,53.86
2023-04-18T09:56:32.105Z,54.05
2023-04-18T09:59:47.688Z,51.99
2023-04-18T10:02:58.101Z,51.75
2023-04-18T10:06:01.494Z,51.20
2023-04-18T10:09:04.862Z,48.93
2023-04-18T10:12:08.656Z,48.32
2023-04-18T10:15:11.996Z,49.10
2023-04-18T10:18:19.130Z,48.01
2023-04-18T10:21:22.295Z,46.20
2023-04-18T10:24:50.265Z,47.88
2023-04-18T10:27:58.460Z,45.43
2023-04-18T10:31:05.792Z,46.24
2023-04-18T10:34:08.798Z,45.20
2023-04-18T10:37:13.171Z,45.00
2023-04-18T10:40:16.093Z,44.76
2023-04-18T10:43:19.519Z,44.01
2023-04-18T10:46:31.869Z,47.24
2023-04-18T10:49:39.196Z,45.90
2023-04-18T10:52:42.692Z,46.74
2023-04-18T10:55:47.667Z,44.44
2023-04-18T10:58:51.489Z,45.12
2023-04-18T11:02:23.245Z,43.12
2023-04-18T11:05:28.685Z,44.06
2023-04-18T11:08:33.187Z,46.70
2023-04-18T11:11:36.120Z,44.12
2023-04-18T11:14:48.410Z,46.47
2023-04-18T11:17:59.901Z,44.60
2023-04-18T11:21:03.981Z,45.38
2023-04-18T11:24:06.933Z,42.67
2023-04-18T11:27:12.651Z,45.10
2023-04-18T11:30:17.013Z,44.45
2023-04-18T11:33:20.352Z,43.18
2023-04-18T11:36:23.683Z,43.30
2023-04-18T11:39:26.831Z,42.65
2023-04-18T11:42:33.131Z,40.38
2023-04-18T11:45:36.399Z,40.31
2023-04-18T11:48:45.482Z,41.07
2023-04-18T11:51:48.668Z,38.07
2023-04-18T11:54:51.957Z,37.24
2023-04-18T11:57:56.699Z,35.21
2023-04-18T12:01:00.989Z,35.91
2023-04-18T12:04:06.782Z,38.08
2023-04-18T12:07:09.881Z,39.95
2023-04-18T12:10:22.385Z,40.09
2023-04-18T12:13:27.248Z,41.80
2023-04-18T12:16:30.908Z,45.79
2023-04-18T12:19:34.412Z,46.61
2023-04-18T12:22:52.461Z,46.16
2023-04-18T12:26:12.232Z,47.57
2023-04-18T12:29:15.771Z,47.80
2023-04-18T12:32:18.915Z,48.67
2023-04-18T12:35:23.163Z,50.13
2023-04-18T12:38:26.168Z,50.38
2023-04-18T12:41:29.379Z,52.05
2023-04-18T12:44:32.314Z,52.78
2023-04-18T12:47:37.167Z,54.46
2023-04-18T12:50:40.088Z,53.49
2023-04-18T12:53:44.641Z,54.49
2023-04-18T12:56:47.838Z,54.65
2023-04-18T12:59:51.064Z,55.79
2023-04-18T13:02:54.151Z,57.08
2023-04-18T13:05:57.557Z,56.63
2023-04-18T13:09:00.543Z,57.36
2023-04-18T13:12:03.883Z,56.55
2023-04-18T13:15:10.635Z,54.47
2023-04-18T13:18:13.846Z,49.01
2023-04-18T13:21:16.861Z,44.16
2023-04-18T13:24:20.141Z,43.28
2023-04-18T13:27:23.010Z,43.03
2023-04-18T13:30:26.308Z,40.08
2023-04-18T13:33:30.642Z,42.06
2023-04-18T13:36:36.270Z,43.53
2023-04-18T13:39:40.403Z,40.59
2023-04-18T13:42:43.769Z,38.15
2023-04-18T13:45:46.671Z,37.98
2023-04-18T13:48:50.082Z,38.10
2023-04-18T13:51:59.026Z,37.21
2023-04-18T13:55:02.241Z,37.72
2023-04-18T13:58:05.163Z,38.39
2023-04-18T14:01:08.661Z,35.94
2023-04-18T14:04:11.885Z,39.38
2023-04-18T14:07:15.107Z,40.49
2023-04-18T14:10:18.339Z,41.07
2023-04-18T14:13:21.325Z,44.16
2023-04-18T14:16:24.540Z,42.03
2023-04-18T14:19:27.529Z,40.74
2023-04-18T14:22:31.244Z,44.02
2023-04-18T14:25:35.460Z,45.82
2023-04-18T14:28:38.793Z,49.98
2023-04-18T14:31:42.848Z,50.32
2023-04-18T14:34:46.500Z,53.32
2023-04-18T14:37:49.374Z,47.71
2023-04-18T14:40:52.532Z,50.53
2023-04-18T14:43:55.359Z,53.03
2023-04-18T14:46:58.567Z,50.65
2023-04-18T14:50:01.532Z,44.88
2023-04-18T14:53:06.188Z,41.78
2023-04-18T14:56:09.143Z,42.26
2023-04-18T14:59:16.444Z,41.33
2023-04-18T15:02:20.184Z,45.33
2023-04-18T15:05:26.676Z,50.14
2023-04-18T15:08:32.698Z,53.24
2023-04-18T15:11:36.136Z,53.89
2023-04-18T15:14:39.680Z,54.46
2023-04-18T15:17:42.576Z,56.47
2023-04-18T15:20:45.969Z,57.45
2023-04-18T15:23:49.213Z,58.16
2023-04-18T15:26:53.076Z,59.79
2023-04-18T15:29:56.705Z,58.79
2023-04-18T15:32:59.707Z,59.40
2023-04-18T15:36:05.879Z,60.09
2023-04-18T15:39:09.298Z,58.91
2023-04-18T15:42:12.493Z,60.17
2023-04-18T15:45:15.693Z,58.83
2023-04-18T15:48:18.858Z,53.98
2023-04-18T15:51:22.290Z,45.36
2023-04-18T15:54:25.612Z,45.07
2023-04-18T15:57:29.889Z,44.71
2023-04-18T16:00:32.925Z,51.48
2023-04-18T16:03:36.393Z,51.81
2023-04-18T16:06:40.632Z,55.62
2023-04-18T16:09:45.625Z,61.37
2023-04-18T16:12:48.585Z,63.18
2023-04-18T16:15:52.660Z,62.56
2023-04-18T16:18:55.532Z,63.90
2023-04-18T16:21:58.861Z,62.85
2023-04-18T16:25:01.987Z,63.29
2023-04-18T16:28:05.335Z,62.68
2023-04-18T16:31:08.138Z,61.33
2023-04-18T16:34:12.516Z,65.23
2023-04-18T16:37:16.143Z,64.55
2023-04-18T16:40:21.964Z,60.95
2023-04-18T16:43:27.057Z,61.08
2023-04-18T16:46:32.400Z,60.91
2023-04-18T16:49:35.855Z,62.73
2023-04-18T16:52:39.881Z,64.89
2023-04-18T16:55:43.265Z,64.66
2023-04-18T16:58:46.956Z,67.55
2023-04-18T17:01:50.421Z,68.34
2023-04-18T17:04:53.837Z,66.33
2023-04-18T17:07:56.871Z,59.45
2023-04-18T17:11:02.127Z,53.87
2023-04-18T17:14:05.861Z,53.18
2023-04-18T17:17:09.548Z,49.60
2023-04-18T17:20:12.617Z,48.97
2023-04-18T17:23:15.807Z,47.71
2023-04-18T17:26:19.038Z,48.07
2023-04-18T17:29:23.830Z,46.65
2023-04-18T17:32:29.638Z,45.83
2023-04-18T17:35:35.620Z,47.74
2023-04-18T17:38:41.136Z,47.98
2023-04-18T17:41:45.393Z,48.16
2023-04-18T17:44:48.662Z,51.83
2023-04-18T17:47:52.359Z,57.54
2023-04-18T17:50:55.980Z,65.85
2023-04-18T17:54:00.886Z,69.23
2023-04-18T17:57:08.148Z,71.09
2023-04-18T18:00:14.354Z,71.97
2023-04-18T18:03:20.717Z,72.55
2023-04-18T18:06:24.190Z,72.37
2023-04-18T18:09:27.721Z,73.06
2023-04-18T18:12:35.859Z,72.63
2023-04-18T18:15:40.765Z,72.78
2023-04-18T18:18:47.079Z,73.44
2023-04-18T18:21:51.033Z,73.46
2023-04-18T18:24:54.750Z,72.42
2023-04-18T18:28:02.815Z,74.77
2023-04-18T18:31:06.132Z,76.69
2023-04-18T18:34:10.858Z,76.63
2023-04-18T18:37:14.791Z,76.24
2023-04-18T18:40:19.820Z,77.19
2023-04-18T18:43:26.968Z,77.81
2023-04-18T18:46:31.520Z,78.59
2023-04-18T18:49:37.088Z,78.99
2023-04-18T18:52:43.718Z,79.34
2023-04-18T18:55:48.519Z,79.01
2023-04-18T18:58:55.640Z,79.59
2023-04-18T19:02:00.487Z,79.30
2023-04-18T19:05:05.025Z,79.18
2023-04-18T19:08:10.083Z,79.63
2023-04-18T19:11:16.375Z,80.41
2023-04-18T19:14:22.070Z,78.90
2023-04-18T19:17:27.875Z,78.68
2023-04-18T19:20:33.176Z,75.41
2023-04-18T19:23:39.672Z,76.67
2023-04-18T19:26:44.725Z,72.62
2023-04-18T19:29:50.162Z,71.74
2023-04-18T19:32:55.935Z,72.39
2023-04-18T19:36:02.748Z,69.35
2023-04-18T19:39:07.669Z,71.13
2023-04-18T19:42:14.777Z,71.81
2023-04-18T19:45:22.123Z,66.07
2023-04-18T19:48:27.978Z,59.69
2023-04-18T19:51:31.934Z,60.51
2023-04-18T19:54:36.243Z,58.05
2023-04-18T19:57:42.056Z,66.23
2023-04-18T20:00:46.490Z,67.16
2023-04-18T20:03:53.284Z,70.25
2023-04-18T20:06:57.945Z,62.57
2023-04-18T20:10:04.405Z,60.56
2023-04-18T20:13:09.534Z,58.30
2023-04-18T20:16:15.986Z,53.64
2023-04-18T20:19:20.347Z,50.44
2023-04-18T20:22:28.429Z,48.92
2023-04-18T20:25:34.422Z,49.61
2023-04-18T20:28:38.606Z,47.55
2023-04-18T20:31:43.005Z,47.99
2023-04-18T20:34:48.422Z,48.22
2023-04-18T20:37:51.766Z,48.14
2023-04-18T20:40:55.994Z,49.06
2023-04-18T20:44:00.532Z,48.22
2023-04-18T20:47:04.224Z,52.81
2023-04-18T20:50:08.404Z,55.64
2023-04-18T20:53:11.905Z,55.99
2023-04-18T20:56:15.024Z,57.65
2023-04-18T20:59:19.655Z,59.23
2023-04-18T21:02:22.821Z,59.21
2023-04-18T21:05:28.919Z,58.22
2023-04-18T21:08:31.988Z,63.05
2023-04-18T21:11:35.148Z,66.75
2023-04-18T21:14:37.945Z,69.31
2023-04-18T21:17:41.104Z,74.04
2023-04-18T21:20:44.010Z,74.68
2023-04-18T21:23:47.190Z,75.67
2023-04-18T21:26:50.033Z,75.86
2023-04-18T21:29:54.012Z,75.81
2023-04-18T21:32:57.058Z,77.31
2023-04-18T21:36:00.311Z,77.48
2023-04-18T21:39:04.169Z,77.50
2023-04-18T21:42:07.412Z,79.21
2023-04-18T21:45:11.083Z,79.17
2023-04-18T21:48:14.264Z,79.01
2023-04-18T21:51:17.565Z,78.10
2023-04-18T21:54:21.207Z,78.11
2023-04-18T21:57:24.200Z,77.79
2023-04-18T22:00:27.828Z,76.41
2023-04-18T22:03:34.501Z,75.21
2023-04-18T22:06:37.593Z,74.79
2023-04-18T22:09:40.914Z,74.59
2023-04-18T22:12:44.004Z,73.61
2023-04-18T22:15:48.325Z,74.14
2023-04-18T22:18:52.433Z,75.93
2023-04-18T22:21:56.334Z,76.36
2023-04-18T22:24:59.426Z,77.37
2023-04-18T22:28:03.160Z,77.12
2023-04-18T22:31:06.317Z,77.85
2023-04-18T22:34:09.711Z,80.24
2023-04-18T22:37:12.567Z,80.24
2023-04-18T22:40:16.624Z,81.07
2023-04-18T22:43:23.023Z,82.79
2023-04-18T22:46:27.460Z,83.12
2023-04-18T22:49:30.546Z,83.55
2023-04-18T22:52:34.464Z,85.98
2023-04-18T22:55:41.554Z,85.61
2023-04-18T22:58:44.741Z,85.45
2023-04-18T23:01:47.655Z,85.97
2023-04-18T23:04:51.156Z,86.15
2023-04-18T23:07:54.366Z,86.25
2023-04-18T23:10:58.015Z,86.70
2023-04-18T23:14:00.940Z,86.46
2023-04-18T23:17:04.270Z,86.33
2023-04-18T23:20:07.763Z,86.61
2023-04-18T23:23:11.336Z,86.27
2023-04-18T23:26:14.851Z,85.87
2023-04-18T23:29:18.232Z,85.49
2023-04-18T23:32:21.107Z,84.69
2023-04-18T23:35:24.565Z,84.86
2023-04-18T23:38:27.907Z,85.18
2023-04-18T23:42:05.325Z,85.13
2023-04-18T23:45:28.194Z,85.54
2023-04-18T23:48:31.491Z,86.08
2023-04-18T23:51:34.630Z,86.10
2023-04-18T23:54:37.988Z,85.97
2023-04-18T23:57:40.928Z,85.63
